sensor_id;sensor_type;location;lat;lon;timestamp;pressure;altitude;pressure_sealevel;temperature;humidity
21276;BME280;36472;52.170;20.884;2023-02-28T00:00:34;101960.06;;;-0.14;62.57
21276;BME280;36472;52.170;20.884;2023-02-28T00:03:16;101947.97;;;-0.22;62.53
21276;BME280;36472;52.170;20.884;2023-02-28T00:05:45;101963.50;;;-0.18;62.13
21276;BME280;36472;52.170;20.884;2023-02-28T00:08:14;101966.91;;;-0.23;62.16
21276;BME280;36472;52.170;20.884;2023-02-28T00:10:44;101966.03;;;-0.32;61.97
21276;BME280;36472;52.170;20.884;2023-02-28T00:13:14;101963.38;;;-0.39;62.09
21276;BME280;36472;52.170;20.884;2023-02-28T00:15:42;101971.97;;;-0.40;61.97
21276;BME280;36472;52.170;20.884;2023-02-28T00:18:13;101965.97;;;-0.39;62.41
21276;BME280;36472;52.170;20.884;2023-02-28T00:20:42;101964.22;;;-0.40;62.38
21276;BME280;36472;52.170;20.884;2023-02-28T00:23:11;101977.13;;;-0.41;62.92
21276;BME280;36472;52.170;20.884;2023-02-28T00:25:39;101971.97;;;-0.46;63.26
21276;BME280;36472;52.170;20.884;2023-02-28T00:28:10;101977.13;;;-0.49;62.90
21276;BME280;36472;52.170;20.884;2023-02-28T00:30:39;101970.19;;;-0.56;62.08
21276;BME280;36472;52.170;20.884;2023-02-28T00:33:08;101972.75;;;-0.59;63.02
21276;BME280;36472;52.170;20.884;2023-02-28T00:35:37;101973.59;;;-0.63;63.77
21276;BME280;36472;52.170;20.884;2023-02-28T00:38:09;101972.69;;;-0.65;63.45
21276;BME280;36472;52.170;20.884;2023-02-28T00:40:38;101965.81;;;-0.66;63.44
21276;BME280;36472;52.170;20.884;2023-02-28T00:43:07;101973.56;;;-0.66;63.87
21276;BME280;36472;52.170;20.884;2023-02-28T00:45:38;101975.25;;;-0.68;64.48
21276;BME280;36472;52.170;20.884;2023-02-28T00:48:07;101966.63;;;-0.72;63.83
21276;BME280;36472;52.170;20.884;2023-02-28T00:50:39;101973.50;;;-0.72;63.50
21276;BME280;36472;52.170;20.884;2023-02-28T00:53:08;101970.94;;;-0.72;63.95
21276;BME280;36472;52.170;20.884;2023-02-28T00:55:36;101970.94;;;-0.72;63.20
21276;BME280;36472;52.170;20.884;2023-02-28T00:58:06;101966.63;;;-0.75;63.87
21276;BME280;36472;52.170;20.884;2023-02-28T01:00:35;101968.31;;;-0.76;64.53
21276;BME280;36472;52.170;20.884;2023-02-28T01:03:05;101970.88;;;-0.79;63.72
21276;BME280;36472;52.170;20.884;2023-02-28T01:05:34;101962.25;;;-0.81;63.18
21276;BME280;36472;52.170;20.884;2023-02-28T01:08:04;101975.16;;;-0.81;62.69
21276;BME280;36472;52.170;20.884;2023-02-28T01:10:34;101973.47;;;-0.80;62.40
21276;BME280;36472;52.170;20.884;2023-02-28T01:13:04;101967.41;;;-0.84;62.92
21276;BME280;36472;52.170;20.884;2023-02-28T01:15:33;101969.09;;;-0.87;63.08
21276;BME280;36472;52.170;20.884;2023-02-28T01:18:02;101969.97;;;-0.88;63.92
21276;BME280;36472;52.170;20.884;2023-02-28T01:20:32;101961.34;;;-0.89;63.71
21276;BME280;36472;52.170;20.884;2023-02-28T01:23:02;101971.69;;;-0.87;63.94
21276;BME280;36472;52.170;20.884;2023-02-28T01:25:30;101968.19;;;-0.94;64.44
21276;BME280;36472;52.170;20.884;2023-02-28T01:27:59;101969.09;;;-0.92;64.70
21276;BME280;36472;52.170;20.884;2023-02-28T01:30:28;101964.75;;;-0.96;64.43
21276;BME280;36472;52.170;20.884;2023-02-28T01:32:57;101964.72;;;-0.98;63.83
21276;BME280;36472;52.170;20.884;2023-02-28T01:35:26;101965.56;;;-1.00;64.50
21276;BME280;36472;52.170;20.884;2023-02-28T01:37:57;101965.56;;;-1.00;64.83
21276;BME280;36472;52.170;20.884;2023-02-28T01:40:42;101965.56;;;-1.03;64.93
21276;BME280;36472;52.170;20.884;2023-02-28T01:43:21;101968.97;;;-1.03;64.95
21276;BME280;36472;52.170;20.884;2023-02-28T01:45:52;101974.13;;;-1.07;64.60
21276;BME280;36472;52.170;20.884;2023-02-28T01:48:26;101979.28;;;-1.07;63.65
21276;BME280;36472;52.170;20.884;2023-02-28T01:51:03;101977.53;;;-1.11;64.22
21276;BME280;36472;52.170;20.884;2023-02-28T01:53:44;101982.69;;;-1.11;63.94
21276;BME280;36472;52.170;20.884;2023-02-28T01:56:20;101982.66;;;-1.18;64.40
21276;BME280;36472;52.170;20.884;2023-02-28T01:58:54;101978.34;;;-1.17;64.85
21276;BME280;36472;52.170;20.884;2023-02-28T02:01:27;101980.06;;;-1.18;65.04
21276;BME280;36472;52.170;20.884;2023-02-28T02:04:01;101974.03;;;-1.21;63.99
21276;BME280;36472;52.170;20.884;2023-02-28T02:06:37;101974.88;;;-1.21;64.36
21276;BME280;36472;52.170;20.884;2023-02-28T02:09:12;101969.69;;;-1.24;65.06
21276;BME280;36472;52.170;20.884;2023-02-28T02:11:44;101975.72;;;-1.22;64.99
21276;BME280;36472;52.170;20.884;2023-02-28T02:14:43;101973.09;;;-1.25;64.84
21276;BME280;36472;52.170;20.884;2023-02-28T02:17:26;101971.41;;;-1.24;64.58
21276;BME280;36472;52.170;20.884;2023-02-28T02:20:32;101978.28;;;-1.26;64.70
21276;BME280;36472;52.170;20.884;2023-02-28T02:23:51;101978.22;;;-1.33;65.13
21276;BME280;36472;52.170;20.884;2023-02-28T02:26:58;101980.78;;;-1.33;65.12
21276;BME280;36472;52.170;20.884;2023-02-28T02:30:06;101981.59;;;-1.35;64.88
21276;BME280;36472;52.170;20.884;2023-02-28T02:33:28;101979.91;;;-1.36;65.76
21276;BME280;36472;52.170;20.884;2023-02-28T02:36:14;101980.72;;;-1.39;65.60
21276;BME280;36472;52.170;20.884;2023-02-28T02:38:53;101981.56;;;-1.41;65.27
21276;BME280;36472;52.170;20.884;2023-02-28T02:41:34;101978.13;;;-1.40;64.65
21276;BME280;36472;52.170;20.884;2023-02-28T02:44:15;101983.28;;;-1.40;64.65
21276;BME280;36472;52.170;20.884;2023-02-28T02:46:48;101973.88;;;-1.38;64.67
21276;BME280;36472;52.170;20.884;2023-02-28T02:49:24;101982.41;;;-1.41;64.37
21276;BME280;36472;52.170;20.884;2023-02-28T02:52:02;101984.97;;;-1.44;64.21
21276;BME280;36472;52.170;20.884;2023-02-28T02:54:36;101984.06;;;-1.47;64.26
21276;BME280;36472;52.170;20.884;2023-02-28T02:57:10;101988.38;;;-1.48;64.63
21276;BME280;36472;52.170;20.884;2023-02-28T02:59:43;101984.91;;;-1.52;65.14
21276;BME280;36472;52.170;20.884;2023-02-28T03:02:16;101992.66;;;-1.50;65.62
21276;BME280;36472;52.170;20.884;2023-02-28T03:04:52;101997.81;;;-1.52;66.14
21276;BME280;36472;52.170;20.884;2023-02-28T03:07:23;101994.34;;;-1.54;65.90
21276;BME280;36472;52.170;20.884;2023-02-28T03:09:54;101992.63;;;-1.53;66.17
21276;BME280;36472;52.170;20.884;2023-02-28T03:12:32;101991.78;;;-1.51;66.08
21276;BME280;36472;52.170;20.884;2023-02-28T03:15:11;101991.75;;;-1.52;65.84
21276;BME280;36472;52.170;20.884;2023-02-28T03:18:01;101990.03;;;-1.53;65.13
21276;BME280;36472;52.170;20.884;2023-02-28T03:20:40;101995.19;;;-1.55;65.21
21276;BME280;36472;52.170;20.884;2023-02-28T03:23:19;101988.28;;;-1.59;65.25
21276;BME280;36472;52.170;20.884;2023-02-28T03:26:00;101988.25;;;-1.62;65.48
21276;BME280;36472;52.170;20.884;2023-02-28T03:28:38;101989.94;;;-1.62;65.50
21276;BME280;36472;52.170;20.884;2023-02-28T03:31:18;101991.66;;;-1.63;66.20
21276;BME280;36472;52.170;20.884;2023-02-28T03:33:55;101997.66;;;-1.62;66.27
21276;BME280;36472;52.170;20.884;2023-02-28T03:36:30;101993.38;;;-1.63;66.41
21276;BME280;36472;52.170;20.884;2023-02-28T03:39:09;101996.84;;;-1.60;66.32
21276;BME280;36472;52.170;20.884;2023-02-28T03:41:45;102001.13;;;-1.62;66.96
21276;BME280;36472;52.170;20.884;2023-02-28T03:44:24;102004.53;;;-1.63;66.64
21276;BME280;36472;52.170;20.884;2023-02-28T03:47:01;102001.13;;;-1.63;67.55
21276;BME280;36472;52.170;20.884;2023-02-28T03:49:36;101997.59;;;-1.70;67.77
21276;BME280;36472;52.170;20.884;2023-02-28T03:52:11;102007.06;;;-1.71;67.84
21276;BME280;36472;52.170;20.884;2023-02-28T03:54:48;101997.63;;;-1.67;67.29
21276;BME280;36472;52.170;20.884;2023-02-28T03:57:28;102005.34;;;-1.70;67.60
21276;BME280;36472;52.170;20.884;2023-02-28T04:00:07;102007.06;;;-1.69;66.54
21276;BME280;36472;52.170;20.884;2023-02-28T04:02:40;102012.19;;;-1.72;65.91
21276;BME280;36472;52.170;20.884;2023-02-28T04:05:09;102002.66;;;-1.76;65.95
21276;BME280;36472;52.170;20.884;2023-02-28T04:07:38;102013.03;;;-1.73;66.27
21276;BME280;36472;52.170;20.884;2023-02-28T04:10:11;102010.44;;;-1.73;66.44
21276;BME280;36472;52.170;20.884;2023-02-28T04:12:40;102007.00;;;-1.74;66.89
21276;BME280;36472;52.170;20.884;2023-02-28T04:15:09;102006.16;;;-1.74;66.67
21276;BME280;36472;52.170;20.884;2023-02-28T04:17:39;102007.00;;;-1.74;67.26
21276;BME280;36472;52.170;20.884;2023-02-28T04:20:09;102003.56;;;-1.73;66.89
21276;BME280;36472;52.170;20.884;2023-02-28T04:22:39;102006.16;;;-1.74;67.23
21276;BME280;36472;52.170;20.884;2023-02-28T04:25:09;102010.41;;;-1.76;67.76
21276;BME280;36472;52.170;20.884;2023-02-28T04:27:38;102010.41;;;-1.79;68.17
21276;BME280;36472;52.170;20.884;2023-02-28T04:30:09;102000.94;;;-1.79;67.94
21276;BME280;36472;52.170;20.884;2023-02-28T04:32:38;102009.53;;;-1.78;67.68
21276;BME280;36472;52.170;20.884;2023-02-28T04:35:08;102013.78;;;-1.82;66.55
21276;BME280;36472;52.170;20.884;2023-02-28T04:37:39;102015.50;;;-1.84;66.49
21276;BME280;36472;52.170;20.884;2023-02-28T04:40:10;102012.91;;;-1.84;66.12
21276;BME280;36472;52.170;20.884;2023-02-28T04:42:40;102015.47;;;-1.85;66.71
21276;BME280;36472;52.170;20.884;2023-02-28T04:45:09;102014.56;;;-1.89;66.90
21276;BME280;36472;52.170;20.884;2023-02-28T04:47:38;102012.81;;;-1.92;66.23
21276;BME280;36472;52.170;20.884;2023-02-28T04:50:09;102008.56;;;-1.86;66.13
21276;BME280;36472;52.170;20.884;2023-02-28T04:52:38;102009.38;;;-1.91;66.18
21276;BME280;36472;52.170;20.884;2023-02-28T04:55:09;102007.63;;;-1.93;66.29
21276;BME280;36472;52.170;20.884;2023-02-28T04:57:39;102010.22;;;-1.95;66.70
21276;BME280;36472;52.170;20.884;2023-02-28T05:00:11;102011.06;;;-1.96;66.45
21276;BME280;36472;52.170;20.884;2023-02-28T05:02:44;102017.03;;;-1.97;66.38
21276;BME280;36472;52.170;20.884;2023-02-28T05:05:13;102014.47;;;-1.97;66.78
21276;BME280;36472;52.170;20.884;2023-02-28T05:07:45;102019.63;;;-1.97;66.62
21276;BME280;36472;52.170;20.884;2023-02-28T05:10:16;102026.50;;;-1.96;67.02
21276;BME280;36472;52.170;20.884;2023-02-28T05:12:45;102023.91;;;-1.97;67.32
21276;BME280;36472;52.170;20.884;2023-02-28T05:15:16;102023.91;;;-1.97;67.04
21276;BME280;36472;52.170;20.884;2023-02-28T05:17:45;102026.47;;;-1.99;66.86
21276;BME280;36472;52.170;20.884;2023-02-28T05:20:14;102029.88;;;-2.01;66.83
21276;BME280;36472;52.170;20.884;2023-02-28T05:22:44;102034.09;;;-2.05;66.48
21276;BME280;36472;52.170;20.884;2023-02-28T05:25:19;102037.56;;;-2.04;67.48
21276;BME280;36472;52.170;20.884;2023-02-28T05:27:49;102038.44;;;-2.04;67.99
21276;BME280;36472;52.170;20.884;2023-02-28T05:30:18;102048.72;;;-2.04;69.20
21276;BME280;36472;52.170;20.884;2023-02-28T05:32:51;102045.31;;;-2.03;69.07
21276;BME280;36472;52.170;20.884;2023-02-28T05:35:20;102046.16;;;-2.04;69.44
21276;BME280;36472;52.170;20.884;2023-02-28T05:37:49;102043.63;;;-2.01;69.13
21276;BME280;36472;52.170;20.884;2023-02-28T05:40:19;102052.25;;;-1.97;69.02
21276;BME280;36472;52.170;20.884;2023-02-28T05:42:50;102054.03;;;-1.95;69.10
21276;BME280;36472;52.170;20.884;2023-02-28T05:45:19;102060.03;;;-1.94;69.30
21276;BME280;36472;52.170;20.884;2023-02-28T05:47:48;102055.66;;;-1.98;68.97
21276;BME280;36472;52.170;20.884;2023-02-28T05:50:17;102060.09;;;-1.91;69.04
21276;BME280;36472;52.170;20.884;2023-02-28T05:52:49;102058.34;;;-1.91;68.54
21276;BME280;36472;52.170;20.884;2023-02-28T05:55:20;102063.59;;;-1.86;68.37
21276;BME280;36472;52.170;20.884;2023-02-28T05:57:49;102061.03;;;-1.81;69.18
21276;BME280;36472;52.170;20.884;2023-02-28T06:00:18;102064.53;;;-1.79;69.37
21276;BME280;36472;52.170;20.884;2023-02-28T06:02:47;102064.56;;;-1.75;69.14
21276;BME280;36472;52.170;20.884;2023-02-28T06:05:17;102080.09;;;-1.70;69.48
21276;BME280;36472;52.170;20.884;2023-02-28T06:07:47;102072.38;;;-1.68;69.82
21276;BME280;36472;52.170;20.884;2023-02-28T06:10:16;102075.88;;;-1.65;69.95
21276;BME280;36472;52.170;20.884;2023-02-28T06:12:46;102081.09;;;-1.57;69.53
21276;BME280;36472;52.170;20.884;2023-02-28T06:15:16;102073.41;;;-1.53;69.69
21276;BME280;36472;52.170;20.884;2023-02-28T06:17:45;102082.94;;;-1.47;69.63
21276;BME280;36472;52.170;20.884;2023-02-28T06:20:14;102077.84;;;-1.42;69.28
21276;BME280;36472;52.170;20.884;2023-02-28T06:22:43;102085.69;;;-1.35;69.51
21276;BME280;36472;52.170;20.884;2023-02-28T06:25:12;102089.16;;;-1.29;69.54
21276;BME280;36472;52.170;20.884;2023-02-28T06:27:41;102078.03;;;-1.24;69.98
21276;BME280;36472;52.170;20.884;2023-02-28T06:30:13;102084.16;;;-1.16;69.61
21276;BME280;36472;52.170;20.884;2023-02-28T06:32:42;102086.78;;;-1.08;69.95
21276;BME280;36472;52.170;20.884;2023-02-28T06:35:11;102086.00;;;-0.99;69.37
21276;BME280;36472;52.170;20.884;2023-02-28T06:37:41;102076.63;;;-0.96;69.75
21276;BME280;36472;52.170;20.884;2023-02-28T06:40:12;102071.53;;;-0.85;69.00
21276;BME280;36472;52.170;20.884;2023-02-28T06:42:41;102081.06;;;-0.76;69.03
21276;BME280;36472;52.170;20.884;2023-02-28T06:45:12;102071.69;;;-0.66;68.56
21276;BME280;36472;52.170;20.884;2023-02-28T06:47:42;102070.91;;;-0.58;68.26
21276;BME280;36472;52.170;20.884;2023-02-28T06:50:12;102064.94;;;-0.47;68.41
21276;BME280;36472;52.170;20.884;2023-02-28T06:52:41;102058.13;;;-0.38;67.82
21276;BME280;36472;52.170;20.884;2023-02-28T06:55:10;102053.00;;;-0.28;67.25
21276;BME280;36472;52.170;20.884;2023-02-28T06:57:40;102053.06;;;-0.19;66.85
21276;BME280;36472;52.170;20.884;2023-02-28T07:00:12;102053.13;;;-0.10;66.18
21276;BME280;36472;52.170;20.884;2023-02-28T07:02:41;102056.63;;;0.02;65.02
21276;BME280;36472;52.170;20.884;2023-02-28T07:05:10;102054.97;;;0.14;64.67
21276;BME280;36472;52.170;20.884;2023-02-28T07:07:40;102053.31;;;0.32;64.74
21276;BME280;36472;52.170;20.884;2023-02-28T07:10:12;102051.66;;;0.46;63.22
21276;BME280;36472;52.170;20.884;2023-02-28T07:12:47;102048.22;;;0.63;60.76
21276;BME280;36472;52.170;20.884;2023-02-28T07:15:17;102043.09;;;0.81;60.14
21276;BME280;36472;52.170;20.884;2023-02-28T07:17:46;102056.06;;;1.04;59.10
21276;BME280;36472;52.170;20.884;2023-02-28T07:20:15;102053.47;;;1.27;57.84
21276;BME280;36472;52.170;20.884;2023-02-28T07:22:44;102053.44;;;1.57;56.76
21276;BME280;36472;52.170;20.884;2023-02-28T07:25:13;102055.13;;;1.79;55.78
21276;BME280;36472;52.170;20.884;2023-02-28T07:27:42;102057.69;;;1.98;55.69
21276;BME280;36472;52.170;20.884;2023-02-28T07:30:13;102062.81;;;2.12;55.58
21276;BME280;36472;52.170;20.884;2023-02-28T07:32:43;102064.50;;;2.23;54.89
21276;BME280;36472;52.170;20.884;2023-02-28T07:35:12;102057.53;;;2.38;53.94
21276;BME280;36472;52.170;20.884;2023-02-28T07:37:42;102059.22;;;2.45;52.44
21276;BME280;36472;52.170;20.884;2023-02-28T07:40:13;102060.94;;;2.49;52.29
21276;BME280;36472;52.170;20.884;2023-02-28T07:42:42;102051.38;;;2.56;51.78
21276;BME280;36472;52.170;20.884;2023-02-28T07:45:13;102049.56;;;2.73;51.91
21276;BME280;36472;52.170;20.884;2023-02-28T07:47:43;102057.22;;;2.90;51.26
21276;BME280;36472;52.170;20.884;2023-02-28T07:52:44;102059.09;;;2.71;48.73
21276;BME280;36472;52.170;20.884;2023-02-28T07:55:14;102057.28;;;2.87;49.22
21276;BME280;36472;52.170;20.884;2023-02-28T07:57:44;102058.88;;;3.04;48.45
21276;BME280;36472;52.170;20.884;2023-02-28T08:00:14;102058.81;;;3.14;47.94
21276;BME280;36472;52.170;20.884;2023-02-28T08:02:44;102060.50;;;3.20;47.81
21276;BME280;36472;52.170;20.884;2023-02-28T08:05:13;102065.72;;;3.14;46.96
21276;BME280;36472;52.170;20.884;2023-02-28T08:07:42;102057.81;;;3.26;47.06
21276;BME280;36472;52.170;20.884;2023-02-28T08:10:12;102059.56;;;3.26;46.44
21276;BME280;36472;52.170;20.884;2023-02-28T08:12:40;102056.00;;;3.39;46.99
21276;BME280;36472;52.170;20.884;2023-02-28T08:15:10;102052.41;;;3.54;47.02
21276;BME280;36472;52.170;20.884;2023-02-28T08:17:39;102058.34;;;3.65;47.25
21276;BME280;36472;52.170;20.884;2023-02-28T08:20:11;102051.41;;;3.66;45.24
21276;BME280;36472;52.170;20.884;2023-02-28T08:22:40;102058.41;;;3.62;45.34
21276;BME280;36472;52.170;20.884;2023-02-28T08:25:12;102047.06;;;3.69;46.02
21276;BME280;36472;52.170;20.884;2023-02-28T08:27:41;102047.66;;;3.93;46.36
21276;BME280;36472;52.170;20.884;2023-02-28T08:30:12;102044.69;;;4.25;44.66
21276;BME280;36472;52.170;20.884;2023-02-28T08:32:41;102056.41;;;4.57;44.62
21276;BME280;36472;52.170;20.884;2023-02-28T08:35:12;102054.38;;;4.78;44.25
21276;BME280;36472;52.170;20.884;2023-02-28T08:37:41;102048.00;;;4.97;44.75
21276;BME280;36472;52.170;20.884;2023-02-28T08:40:11;102047.91;;;5.03;43.30
21276;BME280;36472;52.170;20.884;2023-02-28T08:42:45;102045.34;;;5.00;43.25
21276;BME280;36472;52.170;20.884;2023-02-28T08:45:15;102051.72;;;4.81;42.91
21276;BME280;36472;52.170;20.884;2023-02-28T08:47:43;102054.50;;;4.68;43.14
21276;BME280;36472;52.170;20.884;2023-02-28T08:50:14;102055.34;;;4.71;42.31
21276;BME280;36472;52.170;20.884;2023-02-28T08:52:44;102063.22;;;4.64;42.84
21276;BME280;36472;52.170;20.884;2023-02-28T08:55:13;102051.16;;;4.59;42.88
21276;BME280;36472;52.170;20.884;2023-02-28T08:57:42;102057.06;;;4.73;42.50
21276;BME280;36472;52.170;20.884;2023-02-28T09:00:13;102060.47;;;4.78;43.49
21276;BME280;36472;52.170;20.884;2023-02-28T09:02:42;102055.19;;;4.81;42.85
21276;BME280;36472;52.170;20.884;2023-02-28T09:05:11;102061.31;;;4.79;43.73
21276;BME280;36472;52.170;20.884;2023-02-28T09:07:41;102064.59;;;4.90;44.06
21276;BME280;36472;52.170;20.884;2023-02-28T09:10:11;102064.44;;;5.02;42.94
21276;BME280;36472;52.170;20.884;2023-02-28T09:12:40;102059.88;;;5.15;42.47
21276;BME280;36472;52.170;20.884;2023-02-28T09:15:10;102060.25;;;5.47;42.23
21276;BME280;36472;52.170;20.884;2023-02-28T09:17:39;102059.13;;;6.08;40.72
21276;BME280;36472;52.170;20.884;2023-02-28T09:20:11;102067.72;;;6.93;39.12
21276;BME280;36472;52.170;20.884;2023-02-28T09:22:42;102068.03;;;7.85;38.63
21276;BME280;36472;52.170;20.884;2023-02-28T09:25:11;102067.31;;;8.41;36.56
21276;BME280;36472;52.170;20.884;2023-02-28T09:27:39;102077.00;;;8.97;35.80
21276;BME280;36472;52.170;20.884;2023-02-28T09:30:11;102072.38;;;9.32;35.62
21276;BME280;36472;52.170;20.884;2023-02-28T09:32:40;102071.19;;;9.16;34.70
21276;BME280;36472;52.170;20.884;2023-02-28T09:35:09;102074.75;;;9.13;34.83
21276;BME280;36472;52.170;20.884;2023-02-28T09:37:42;102073.00;;;9.14;35.23
21276;BME280;36472;52.170;20.884;2023-02-28T09:40:13;102077.31;;;9.15;34.99
21276;BME280;36472;52.170;20.884;2023-02-28T09:42:47;102077.31;;;8.88;35.45
21276;BME280;36472;52.170;20.884;2023-02-28T09:45:24;102075.00;;;8.77;36.50
21276;BME280;36472;52.170;20.884;2023-02-28T09:48:00;102071.31;;;8.55;36.42
21276;BME280;36472;52.170;20.884;2023-02-28T09:50:37;102073.31;;;8.76;36.10
21276;BME280;36472;52.170;20.884;2023-02-28T09:53:19;102073.66;;;9.21;35.18
21276;BME280;36472;52.170;20.884;2023-02-28T09:55:54;102073.38;;;9.55;34.23
21276;BME280;36472;52.170;20.884;2023-02-28T09:58:32;102073.38;;;10.29;33.62
21276;BME280;36472;52.170;20.884;2023-02-28T10:01:10;102070.28;;;10.87;33.27
21276;BME280;36472;52.170;20.884;2023-02-28T10:03:46;102069.25;;;11.34;31.75
21276;BME280;36472;52.170;20.884;2023-02-28T10:06:24;102073.88;;;11.49;30.62
21276;BME280;36472;52.170;20.884;2023-02-28T10:09:02;102078.22;;;11.71;30.93
21276;BME280;36472;52.170;20.884;2023-02-28T10:11:36;102063.59;;;12.05;30.49
21276;BME280;36472;52.170;20.884;2023-02-28T10:14:14;102070.31;;;12.12;30.24
21276;BME280;36472;52.170;20.884;2023-02-28T10:16:49;102073.59;;;12.17;29.92
21276;BME280;36472;52.170;20.884;2023-02-28T10:19:25;102072.50;;;12.21;29.89
21276;BME280;36472;52.170;20.884;2023-02-28T10:22:08;102068.59;;;12.68;30.10
21276;BME280;36472;52.170;20.884;2023-02-28T10:24:43;102057.88;;;12.90;28.75
21276;BME280;36472;52.170;20.884;2023-02-28T10:27:16;102062.09;;;13.12;29.66
21276;BME280;36472;52.170;20.884;2023-02-28T10:29:49;102053.66;;;13.22;28.57
21276;BME280;36472;52.170;20.884;2023-02-28T10:32:22;102062.75;;;12.98;28.85
21276;BME280;36472;52.170;20.884;2023-02-28T10:34:57;102063.00;;;12.93;28.86
21276;BME280;36472;52.170;20.884;2023-02-28T10:37:26;102069.91;;;12.96;28.85
21276;BME280;36472;52.170;20.884;2023-02-28T10:39:56;102066.44;;;12.95;28.75
21276;BME280;36472;52.170;20.884;2023-02-28T10:42:28;102063.69;;;12.60;29.25
21276;BME280;36472;52.170;20.884;2023-02-28T10:45:12;102065.44;;;12.79;29.28
21276;BME280;36472;52.170;20.884;2023-02-28T10:47:53;102062.88;;;12.77;29.18
21276;BME280;36472;52.170;20.884;2023-02-28T10:50:42;102065.53;;;13.14;28.20
21276;BME280;36472;52.170;20.884;2023-02-28T10:53:28;102060.03;;;13.53;28.00
21276;BME280;36472;52.170;20.884;2023-02-28T10:56:17;102065.81;;;14.11;27.68
21276;BME280;36472;52.170;20.884;2023-02-28T10:58:54;102046.13;;;14.66;26.84
21276;BME280;36472;52.170;20.884;2023-02-28T11:01:34;102056.88;;;14.63;26.67
21276;BME280;36472;52.170;20.884;2023-02-28T11:04:18;102060.13;;;15.14;25.74
21276;BME280;36472;52.170;20.884;2023-02-28T11:06:57;102048.22;;;15.66;25.34
21276;BME280;36472;52.170;20.884;2023-02-28T11:09:31;102051.53;;;15.69;25.22
21276;BME280;36472;52.170;20.884;2023-02-28T11:12:06;102041.00;;;15.84;24.87
21276;BME280;36472;52.170;20.884;2023-02-28T11:14:47;102047.75;;;16.45;24.00
21276;BME280;36472;52.170;20.884;2023-02-28T11:17:22;102038.81;;;17.28;23.57
21276;BME280;36472;52.170;20.884;2023-02-28T11:19:55;102036.06;;;18.07;22.57
21276;BME280;36472;52.170;20.884;2023-02-28T11:22:29;102033.38;;;18.81;21.57
21276;BME280;36472;52.170;20.884;2023-02-28T11:25:07;102030.63;;;19.18;21.10
21276;BME280;36472;52.170;20.884;2023-02-28T11:27:48;102028.97;;;20.09;20.07
21276;BME280;36472;52.170;20.884;2023-02-28T11:30:33;102023.50;;;20.98;19.80
21276;BME280;36472;52.170;20.884;2023-02-28T11:33:23;102023.09;;;21.44;20.03
21276;BME280;36472;52.170;20.884;2023-02-28T11:36:00;102014.97;;;21.46;19.26
21276;BME280;36472;52.170;20.884;2023-02-28T11:38:34;102014.31;;;21.84;19.19
21276;BME280;36472;52.170;20.884;2023-02-28T11:41:40;102011.75;;;22.14;18.52
21276;BME280;36472;52.170;20.884;2023-02-28T11:44:36;102007.88;;;22.47;18.17
21276;BME280;36472;52.170;20.884;2023-02-28T11:47:15;101999.16;;;22.74;18.14
21276;BME280;36472;52.170;20.884;2023-02-28T11:50:03;102004.09;;;22.79;17.66
21276;BME280;36472;52.170;20.884;2023-02-28T11:52:45;101998.41;;;23.31;17.31
21276;BME280;36472;52.170;20.884;2023-02-28T11:55:24;101991.16;;;24.16;16.79
21276;BME280;36472;52.170;20.884;2023-02-28T11:58:24;101988.78;;;24.31;16.32
21276;BME280;36472;52.170;20.884;2023-02-28T12:01:35;101977.19;;;24.31;16.48
21276;BME280;36472;52.170;20.884;2023-02-28T12:04:25;101984.69;;;24.55;16.27
21276;BME280;36472;52.170;20.884;2023-02-28T12:07:02;101986.19;;;24.93;15.88
21276;BME280;36472;52.170;20.884;2023-02-28T12:09:55;101974.72;;;24.65;15.80
21276;BME280;36472;52.170;20.884;2023-02-28T12:12:43;101973.84;;;25.09;16.08
21276;BME280;36472;52.170;20.884;2023-02-28T12:21:38;101972.00;;;24.65;16.40
21276;BME280;36472;52.170;20.884;2023-02-28T12:27:27;101961.13;;;24.67;16.01
21276;BME280;36472;52.170;20.884;2023-02-28T12:30:01;101953.88;;;24.31;16.10
21276;BME280;36472;52.170;20.884;2023-02-28T12:32:37;101956.84;;;22.49;17.08
21276;BME280;36472;52.170;20.884;2023-02-28T12:35:15;101950.34;;;19.45;19.85
21276;BME280;36472;52.170;20.884;2023-02-28T12:37:53;101953.13;;;16.59;22.08
21276;BME280;36472;52.170;20.884;2023-02-28T12:40:33;101951.72;;;14.50;24.76
21276;BME280;36472;52.170;20.884;2023-02-28T12:43:10;101939.34;;;12.85;26.77
21276;BME280;36472;52.170;20.884;2023-02-28T12:45:45;101931.19;;;11.41;28.22
21276;BME280;36472;52.170;20.884;2023-02-28T12:48:25;101952.00;;;10.41;30.29
21276;BME280;36472;52.170;20.884;2023-02-28T12:50:58;101931.91;;;9.71;31.78
21276;BME280;36472;52.170;20.884;2023-02-28T12:53:49;101930.84;;;9.03;32.80
21276;BME280;36472;52.170;20.884;2023-02-28T12:56:35;101935.41;;;8.44;33.52
21276;BME280;36472;52.170;20.884;2023-02-28T12:59:18;101940.31;;;7.97;34.73
21276;BME280;36472;52.170;20.884;2023-02-28T13:02:39;101931.00;;;7.57;35.62
21276;BME280;36472;52.170;20.884;2023-02-28T13:06:04;101933.88;;;7.15;36.47
21276;BME280;36472;52.170;20.884;2023-02-28T13:09:09;101932.88;;;6.86;36.89
21276;BME280;36472;52.170;20.884;2023-02-28T13:11:43;101926.59;;;6.57;37.82
21276;BME280;36472;52.170;20.884;2023-02-28T13:14:26;101923.47;;;6.43;38.25
21276;BME280;36472;52.170;20.884;2023-02-28T13:17:10;101929.75;;;6.35;38.60
21276;BME280;36472;52.170;20.884;2023-02-28T13:19:44;101916.94;;;6.23;38.44
21276;BME280;36472;52.170;20.884;2023-02-28T13:22:39;101917.94;;;6.17;38.86
21276;BME280;36472;52.170;20.884;2023-02-28T13:25:51;101926.00;;;6.08;38.73
21276;BME280;36472;52.170;20.884;2023-02-28T13:29:21;101923.56;;;5.99;39.71
21276;BME280;36472;52.170;20.884;2023-02-28T13:32:41;101911.69;;;5.84;39.94
21276;BME280;36472;52.170;20.884;2023-02-28T13:35:37;101920.47;;;5.80;40.73